sensor_id;sensor_type;location;lat;lon;timestamp;pressure;altitude;pressure_sealevel;temperature;humidity
55540;BME280;41384;51.418;7.286;2023-07-29T00:01:16;99073.28;;;19.29;100.00
55540;BME280;41384;51.418;7.286;2023-07-29T00:03:41;99078.13;;;19.27;100.00
55540;BME280;41384;51.418;7.286;2023-07-29T00:06:06;99068.44;;;19.31;100.00
55540;BME280;41384;51.418;7.286;2023-07-29T00:08:32;99066.25;;;19.38;100.00
55540;BME280;41384;51.418;7.286;2023-07-29T00:10:57;99067.28;;;19.13;100.00
55540;BME280;41384;51.418;7.286;2023-07-29T00:13:22;99066.59;;;19.02;100.00
55540;BME280;41384;51.418;7.286;2023-07-29T00:15:47;99064.50;;;18.88;100.00
55540;BME280;41384;51.418;7.286;2023-07-29T00:18:13;99062.06;;;18.92;100.00
55540;BME280;41384;51.418;7.286;2023-07-29T00:20:38;99052.16;;;18.98;100.00
55540;BME280;41384;51.418;7.286;2023-07-29T00:23:03;99060.19;;;18.92;100.00
55540;BME280;41384;51.418;7.286;2023-07-29T00:25:29;99054.91;;;18.82;100.00
55540;BME280;41384;51.418;7.286;2023-07-29T00:27:55;99049.28;;;18.89;100.00
55540;BME280;41384;51.418;7.286;2023-07-29T00:30:21;99045.22;;;18.91;100.00
55540;BME280;41384;51.418;7.286;2023-07-29T00:32:46;99049.69;;;19.06;100.00
55540;BME280;41384;51.418;7.286;2023-07-29T00:35:12;99048.41;;;18.99;100.00
55540;BME280;41384;51.418;7.286;2023-07-29T00:37:37;99053.13;;;19.12;100.00
55540;BME280;41384;51.418;7.286;2023-07-29T00:40:05;99041.72;;;18.96;100.00
55540;BME280;41384;51.418;7.286;2023-07-29T00:42:34;99035.69;;;18.80;100.00
55540;BME280;41384;51.418;7.286;2023-07-29T00:45:00;99030.38;;;18.75;100.00
55540;BME280;41384;51.418;7.286;2023-07-29T00:47:25;99032.66;;;18.92;100.00
55540;BME280;41384;51.418;7.286;2023-07-29T00:49:50;99035.13;;;18.83;100.00
55540;BME280;41384;51.418;7.286;2023-07-29T00:52:16;99029.69;;;18.93;100.00
55540;BME280;41384;51.418;7.286;2023-07-29T00:54:42;99033.94;;;19.00;100.00
55540;BME280;41384;51.418;7.286;2023-07-29T00:57:08;99032.34;;;19.04;100.00
55540;BME280;41384;51.418;7.286;2023-07-29T00:59:35;99027.53;;;18.95;100.00
55540;BME280;41384;51.418;7.286;2023-07-29T01:02:02;99020.50;;;19.10;100.00
55540;BME280;41384;51.418;7.286;2023-07-29T01:04:27;99025.50;;;19.17;100.00
55540;BME280;41384;51.418;7.286;2023-07-29T01:07:11;99027.63;;;19.20;100.00
55540;BME280;41384;51.418;7.286;2023-07-29T01:12:17;99024.22;;;19.14;100.00
55540;BME280;41384;51.418;7.286;2023-07-29T01:14:59;99017.28;;;19.13;100.00
55540;BME280;41384;51.418;7.286;2023-07-29T01:18:05;99015.16;;;19.10;100.00
55540;BME280;41384;51.418;7.286;2023-07-29T01:20:37;99018.06;;;19.14;100.00
55540;BME280;41384;51.418;7.286;2023-07-29T01:23:03;99011.06;;;19.18;100.00
55540;BME280;41384;51.418;7.286;2023-07-29T01:25:29;99009.97;;;19.19;100.00
55540;BME280;41384;51.418;7.286;2023-07-29T01:27:54;99014.25;;;19.20;100.00
55540;BME280;41384;51.418;7.286;2023-07-29T01:30:22;99016.25;;;19.09;100.00
55540;BME280;41384;51.418;7.286;2023-07-29T01:33:14;99012.53;;;19.05;100.00
55540;BME280;41384;51.418;7.286;2023-07-29T01:36:03;99007.69;;;19.07;100.00
55540;BME280;41384;51.418;7.286;2023-07-29T01:38:33;99009.81;;;19.10;100.00
55540;BME280;41384;51.418;7.286;2023-07-29T01:41:01;99010.88;;;19.09;100.00
55540;BME280;41384;51.418;7.286;2023-07-29T01:43:28;99006.06;;;19.11;100.00
55540;BME280;41384;51.418;7.286;2023-07-29T01:45:54;98995.41;;;19.06;100.00
55540;BME280;41384;51.418;7.286;2023-07-29T01:48:19;99001.31;;;19.03;100.00
55540;BME280;41384;51.418;7.286;2023-07-29T01:50:44;98997.59;;;18.99;100.00
55540;BME280;41384;51.418;7.286;2023-07-29T01:53:10;98992.00;;;18.95;100.00
55540;BME280;41384;51.418;7.286;2023-07-29T01:55:35;98997.34;;;18.95;100.00
55540;BME280;41384;51.418;7.286;2023-07-29T01:58:00;98999.72;;;19.02;100.00
55540;BME280;41384;51.418;7.286;2023-07-29T02:00:26;99001.53;;;19.06;100.00
55540;BME280;41384;51.418;7.286;2023-07-29T02:02:51;98998.09;;;19.06;100.00
55540;BME280;41384;51.418;7.286;2023-07-29T02:05:16;99006.06;;;19.11;100.00
55540;BME280;41384;51.418;7.286;2023-07-29T02:07:42;98993.47;;;19.12;100.00
55540;BME280;41384;51.418;7.286;2023-07-29T02:10:07;98992.31;;;19.18;100.00
55540;BME280;41384;51.418;7.286;2023-07-29T02:12:33;98993.19;;;19.13;100.00
55540;BME280;41384;51.418;7.286;2023-07-29T02:14:58;98993.25;;;19.08;100.00
55540;BME280;41384;51.418;7.286;2023-07-29T02:17:23;98997.22;;;19.10;100.00
55540;BME280;41384;51.418;7.286;2023-07-29T02:19:48;98984.94;;;19.09;100.00
55540;BME280;41384;51.418;7.286;2023-07-29T02:22:15;98977.97;;;19.08;100.00
55540;BME280;41384;51.418;7.286;2023-07-29T02:24:40;98971.28;;;19.11;100.00
55540;BME280;41384;51.418;7.286;2023-07-29T02:27:06;98970.41;;;19.16;100.00
55540;BME280;41384;51.418;7.286;2023-07-29T02:29:31;98971.28;;;19.11;100.00
55540;BME280;41384;51.418;7.286;2023-07-29T02:31:58;98965.94;;;19.11;100.00
55540;BME280;41384;51.418;7.286;2023-07-29T02:34:23;98969.19;;;19.08;100.00
55540;BME280;41384;51.418;7.286;2023-07-29T02:36:48;98970.41;;;19.16;100.00
55540;BME280;41384;51.418;7.286;2023-07-29T02:39:14;98957.22;;;19.00;100.00
55540;BME280;41384;51.418;7.286;2023-07-29T02:41:39;98955.09;;;18.97;100.00
55540;BME280;41384;51.418;7.286;2023-07-29T02:44:05;98950.84;;;18.91;100.00
55540;BME280;41384;51.418;7.286;2023-07-29T02:46:30;98946.81;;;18.93;100.00
55540;BME280;41384;51.418;7.286;2023-07-29T02:48:56;98943.88;;;18.95;100.00
55540;BME280;41384;51.418;7.286;2023-07-29T02:51:21;98950.00;;;19.01;100.00
55540;BME280;41384;51.418;7.286;2023-07-29T02:53:46;98957.47;;;18.99;100.00
55540;BME280;41384;51.418;7.286;2023-07-29T02:56:12;98959.03;;;19.05;100.00
55540;BME280;41384;51.418;7.286;2023-07-29T02:58:37;98969.97;;;19.08;100.00
55540;BME280;41384;51.418;7.286;2023-07-29T03:01:04;98968.09;;;19.09;100.00
55540;BME280;41384;51.418;7.286;2023-07-29T03:03:30;98963.78;;;19.13;100.00
55540;BME280;41384;51.418;7.286;2023-07-29T03:08:41;98973.19;;;19.05;100.00
55540;BME280;41384;51.418;7.286;2023-07-29T03:11:08;98973.97;;;19.11;100.00
55540;BME280;41384;51.418;7.286;2023-07-29T03:13:33;98980.38;;;19.10;100.00
55540;BME280;41384;51.418;7.286;2023-07-29T03:16:13;98985.75;;;19.10;100.00
55540;BME280;41384;51.418;7.286;2023-07-29T03:18:39;98986.53;;;19.10;100.00
55540;BME280;41384;51.418;7.286;2023-07-29T03:21:05;98978.22;;;19.12;100.00
55540;BME280;41384;51.418;7.286;2023-07-29T03:23:31;98978.75;;;19.14;100.00
55540;BME280;41384;51.418;7.286;2023-07-29T03:25:58;98975.75;;;19.16;100.00
55540;BME280;41384;51.418;7.286;2023-07-29T03:28:32;98980.38;;;19.10;100.00
55540;BME280;41384;51.418;7.286;2023-07-29T03:30:58;98975.56;;;19.12;100.00
55540;BME280;41384;51.418;7.286;2023-07-29T03:33:24;98978.75;;;19.14;100.00
55540;BME280;41384;51.418;7.286;2023-07-29T03:35:50;98976.13;;;19.09;100.00
55540;BME280;41384;51.418;7.286;2023-07-29T03:38:15;98975.81;;;19.10;100.00
55540;BME280;41384;51.418;7.286;2023-07-29T03:40:41;98966.50;;;19.08;100.00
55540;BME280;41384;51.418;7.286;2023-07-29T03:43:07;98980.09;;;19.12;100.00
55540;BME280;41384;51.418;7.286;2023-07-29T03:45:33;98972.06;;;19.12;100.00
55540;BME280;41384;51.418;7.286;2023-07-29T03:47:59;98969.69;;;19.10;100.00
55540;BME280;41384;51.418;7.286;2023-07-29T03:50:26;98967.22;;;19.14;100.00
55540;BME280;41384;51.418;7.286;2023-07-29T03:52:51;98963.25;;;19.11;100.00
55540;BME280;41384;51.418;7.286;2023-07-29T03:55:16;98963.19;;;19.16;100.00
55540;BME280;41384;51.418;7.286;2023-07-29T03:57:42;98960.53;;;19.16;100.00
55540;BME280;41384;51.418;7.286;2023-07-29T04:00:07;98957.09;;;19.10;100.00
55540;BME280;41384;51.418;7.286;2023-07-29T04:02:34;98966.97;;;19.15;100.00
55540;BME280;41384;51.418;7.286;2023-07-29T04:05:03;98954.63;;;19.19;100.00
55540;BME280;41384;51.418;7.286;2023-07-29T04:07:28;98961.25;;;19.22;100.00
55540;BME280;41384;51.418;7.286;2023-07-29T04:09:54;98959.91;;;19.24;100.00
55540;BME280;41384;51.418;7.286;2023-07-29T04:12:19;98961.72;;;19.29;100.00
55540;BME280;41384;51.418;7.286;2023-07-29T04:14:46;98964.44;;;19.24;100.00
55540;BME280;41384;51.418;7.286;2023-07-29T04:17:11;98956.16;;;19.25;100.00
55540;BME280;41384;51.418;7.286;2023-07-29T04:19:37;98961.50;;;19.25;100.00
55540;BME280;41384;51.418;7.286;2023-07-29T04:22:02;98958.06;;;19.20;100.00
55540;BME280;41384;51.418;7.286;2023-07-29T04:24:27;98945.25;;;19.17;100.00
55540;BME280;41384;51.418;7.286;2023-07-29T04:26:53;98937.47;;;19.20;100.00
55540;BME280;41384;51.418;7.286;2023-07-29T04:29:18;98940.72;;;19.17;100.00
55540;BME280;41384;51.418;7.286;2023-07-29T04:31:43;98948.25;;;19.15;100.00
55540;BME280;41384;51.418;7.286;2023-07-29T04:34:09;98948.44;;;19.19;100.00
55540;BME280;41384;51.418;7.286;2023-07-29T04:36:34;98950.84;;;19.20;100.00
55540;BME280;41384;51.418;7.286;2023-07-29T04:38:59;98955.91;;;19.22;100.00
55540;BME280;41384;51.418;7.286;2023-07-29T04:41:25;98958.81;;;19.25;100.00
55540;BME280;41384;51.418;7.286;2023-07-29T04:43:50;98974.56;;;19.27;100.00
55540;BME280;41384;51.418;7.286;2023-07-29T04:46:16;98967.69;;;19.21;100.00
55540;BME280;41384;51.418;7.286;2023-07-29T04:48:41;98975.09;;;19.29;100.00
55540;BME280;41384;51.418;7.286;2023-07-29T04:51:06;98969.00;;;19.23;100.00
55540;BME280;41384;51.418;7.286;2023-07-29T04:53:32;98973.56;;;19.23;100.00
55540;BME280;41384;51.418;7.286;2023-07-29T04:55:58;98971.75;;;19.18;100.00
55540;BME280;41384;51.418;7.286;2023-07-29T04:58:23;98979.31;;;19.11;100.00
55540;BME280;41384;51.418;7.286;2023-07-29T05:00:48;98991.53;;;19.17;100.00
55540;BME280;41384;51.418;7.286;2023-07-29T05:03:14;98983.78;;;19.16;100.00
55540;BME280;41384;51.418;7.286;2023-07-29T05:05:39;98990.47;;;19.18;100.00
55540;BME280;41384;51.418;7.286;2023-07-29T05:08:04;98991.81;;;19.16;100.00
55540;BME280;41384;51.418;7.286;2023-07-29T05:10:29;98995.00;;;19.18;100.00
55540;BME280;41384;51.418;7.286;2023-07-29T05:12:55;98994.59;;;19.05;100.00
55540;BME280;41384;51.418;7.286;2023-07-29T05:15:20;99000.75;;;19.06;100.00
55540;BME280;41384;51.418;7.286;2023-07-29T05:17:45;99001.78;;;19.10;100.00
55540;BME280;41384;51.418;7.286;2023-07-29T05:20:11;98998.41;;;18.99;100.00
55540;BME280;41384;51.418;7.286;2023-07-29T05:22:36;99001.59;;;19.01;100.00
55540;BME280;41384;51.418;7.286;2023-07-29T05:25:02;98983.34;;;19.08;100.00
55540;BME280;41384;51.418;7.286;2023-07-29T05:27:27;98977.16;;;19.13;100.00
55540;BME280;41384;51.418;7.286;2023-07-29T05:29:53;98969.19;;;19.08;100.00
55540;BME280;41384;51.418;7.286;2023-07-29T05:32:18;98970.25;;;19.07;100.00
55540;BME280;41384;51.418;7.286;2023-07-29T05:34:43;98958.13;;;19.15;100.00
55540;BME280;41384;51.418;7.286;2023-07-29T05:37:09;98954.66;;;19.14;100.00
55540;BME280;41384;51.418;7.286;2023-07-29T05:39:34;98964.50;;;19.19;100.00
55540;BME280;41384;51.418;7.286;2023-07-29T05:41:59;98962.06;;;19.22;100.00
55540;BME280;41384;51.418;7.286;2023-07-29T05:44:27;98964.16;;;19.25;100.00
55540;BME280;41384;51.418;7.286;2023-07-29T05:46:52;98980.28;;;19.20;100.00
55540;BME280;41384;51.418;7.286;2023-07-29T05:49:18;98986.34;;;19.26;100.00
55540;BME280;41384;51.418;7.286;2023-07-29T05:51:43;98998.38;;;19.29;100.00
55540;BME280;41384;51.418;7.286;2023-07-29T05:54:08;99011.69;;;19.34;100.00
55540;BME280;41384;51.418;7.286;2023-07-29T05:56:34;99004.75;;;19.33;100.00
55540;BME280;41384;51.418;7.286;2023-07-29T05:58:59;99010.03;;;19.38;100.00
55540;BME280;41384;51.418;7.286;2023-07-29T06:01:25;99011.84;;;19.43;100.00
55540;BME280;41384;51.418;7.286;2023-07-29T06:03:51;99026.16;;;19.33;100.00
55540;BME280;41384;51.418;7.286;2023-07-29T06:06:16;99032.75;;;19.16;100.00
55540;BME280;41384;51.418;7.286;2023-07-29T06:08:41;99033.06;;;19.09;100.00
55540;BME280;41384;51.418;7.286;2023-07-29T06:11:07;99035.94;;;19.18;100.00
55540;BME280;41384;51.418;7.286;2023-07-29T06:13:32;99027.91;;;19.18;100.00
55540;BME280;41384;51.418;7.286;2023-07-29T06:15:58;99037.59;;;19.14;100.00
55540;BME280;41384;51.418;7.286;2023-07-29T06:18:24;99027.34;;;19.21;100.00
55540;BME280;41384;51.418;7.286;2023-07-29T06:20:49;99029.78;;;19.18;100.00
55540;BME280;41384;51.418;7.286;2023-07-29T06:23:14;99043.50;;;19.11;100.00
55540;BME280;41384;51.418;7.286;2023-07-29T06:25:40;99044.56;;;19.10;100.00
55540;BME280;41384;51.418;7.286;2023-07-29T06:28:05;99059.75;;;19.15;100.00
55540;BME280;41384;51.418;7.286;2023-07-29T06:30:30;99063.25;;;19.15;100.00
55540;BME280;41384;51.418;7.286;2023-07-29T06:32:56;99080.38;;;19.14;100.00
55540;BME280;41384;51.418;7.286;2023-07-29T06:35:21;99080.66;;;19.13;100.00
55540;BME280;41384;51.418;7.286;2023-07-29T06:37:46;99079.88;;;19.12;100.00
55540;BME280;41384;51.418;7.286;2023-07-29T06:40:12;99078.84;;;19.08;100.00
55540;BME280;41384;51.418;7.286;2023-07-29T06:42:37;99066.03;;;19.00;100.00
55540;BME280;41384;51.418;7.286;2023-07-29T06:45:04;99074.22;;;19.14;100.00
55540;BME280;41384;51.418;7.286;2023-07-29T06:47:29;99078.50;;;19.15;100.00
55540;BME280;41384;51.418;7.286;2023-07-29T06:49:55;99078.22;;;19.16;100.00
55540;BME280;41384;51.418;7.286;2023-07-29T06:52:20;99084.03;;;19.23;100.00
55540;BME280;41384;51.418;7.286;2023-07-29T06:54:45;99081.63;;;19.22;100.00
55540;BME280;41384;51.418;7.286;2023-07-29T06:57:11;99084.34;;;19.17;100.00
55540;BME280;41384;51.418;7.286;2023-07-29T06:59:36;99085.16;;;19.17;100.00
55540;BME280;41384;51.418;7.286;2023-07-29T07:02:01;99083.56;;;19.16;100.00
55540;BME280;41384;51.418;7.286;2023-07-29T07:04:27;99093.72;;;19.19;100.00
55540;BME280;41384;51.418;7.286;2023-07-29T07:06:52;99085.69;;;19.19;100.00
55540;BME280;41384;51.418;7.286;2023-07-29T07:09:17;99077.91;;;19.18;100.00
55540;BME280;41384;51.418;7.286;2023-07-29T07:11:42;99078.44;;;19.20;100.00
55540;BME280;41384;51.418;7.286;2023-07-29T07:14:08;99075.03;;;19.14;100.00
55540;BME280;41384;51.418;7.286;2023-07-29T07:16:33;99073.28;;;18.94;100.00
55540;BME280;41384;51.418;7.286;2023-07-29T07:19:00;99089.34;;;18.94;100.00
55540;BME280;41384;51.418;7.286;2023-07-29T07:21:25;99083.16;;;18.93;100.00
55540;BME280;41384;51.418;7.286;2023-07-29T07:23:51;99086.59;;;19.04;100.00
55540;BME280;41384;51.418;7.286;2023-07-29T07:26:16;99083.16;;;18.93;100.00
55540;BME280;41384;51.418;7.286;2023-07-29T07:28:41;99083.16;;;18.99;100.00
55540;BME280;41384;51.418;7.286;2023-07-29T07:31:06;99089.13;;;19.20;100.00
55540;BME280;41384;51.418;7.286;2023-07-29T07:33:32;99092.69;;;19.15;100.00
55540;BME280;41384;51.418;7.286;2023-07-29T07:35:57;99089.91;;;19.25;100.00
55540;BME280;41384;51.418;7.286;2023-07-29T07:38:22;99089.38;;;19.23;100.00
55540;BME280;41384;51.418;7.286;2023-07-29T07:40:55;99091.97;;;19.34;100.00
55540;BME280;41384;51.418;7.286;2023-07-29T07:43:21;99095.44;;;19.34;100.00
55540;BME280;41384;51.418;7.286;2023-07-29T07:45:47;99095.44;;;19.34;100.00
55540;BME280;41384;51.418;7.286;2023-07-29T07:48:12;99087.41;;;19.34;100.00
55540;BME280;41384;51.418;7.286;2023-07-29T07:50:38;99090.47;;;19.22;100.00
55540;BME280;41384;51.418;7.286;2023-07-29T07:53:04;99092.47;;;19.36;100.00
55540;BME280;41384;51.418;7.286;2023-07-29T07:55:29;99093.31;;;19.31;100.00
55540;BME280;41384;51.418;7.286;2023-07-29T07:57:54;99089.28;;;19.34;100.00
55540;BME280;41384;51.418;7.286;2023-07-29T08:00:20;99080.69;;;19.37;100.00
55540;BME280;41384;51.418;7.286;2023-07-29T08:02:45;99084.09;;;19.48;100.00
55540;BME280;41384;51.418;7.286;2023-07-29T08:05:11;99077.75;;;19.63;100.00
55540;BME280;41384;51.418;7.286;2023-07-29T08:07:36;99080.78;;;19.56;100.00
55540;BME280;41384;51.418;7.286;2023-07-29T08:10:01;99082.66;;;19.56;100.00
55540;BME280;41384;51.418;7.286;2023-07-29T08:12:26;99083.03;;;19.68;100.00
55540;BME280;41384;51.418;7.286;2023-07-29T08:14:52;99084.69;;;19.64;100.00
55540;BME280;41384;51.418;7.286;2023-07-29T08:17:17;99088.69;;;19.66;100.00
55540;BME280;41384;51.418;7.286;2023-07-29T08:19:42;99086.88;;;19.62;100.00
55540;BME280;41384;51.418;7.286;2023-07-29T08:22:08;99090.06;;;19.64;100.00
55540;BME280;41384;51.418;7.286;2023-07-29T08:24:33;99078.84;;;19.62;99.88
55540;BME280;41384;51.418;7.286;2023-07-29T08:26:59;99088.25;;;19.59;100.00
55540;BME280;41384;51.418;7.286;2023-07-29T08:29:24;99091.19;;;19.58;100.00
55540;BME280;41384;51.418;7.286;2023-07-29T08:31:49;99092.09;;;19.48;100.00
55540;BME280;41384;51.418;7.286;2023-07-29T08:34:16;99097.00;;;19.65;99.11
55540;BME280;41384;51.418;7.286;2023-07-29T08:36:41;99091.44;;;19.61;100.00
55540;BME280;41384;51.418;7.286;2023-07-29T08:39:07;99105.09;;;19.60;99.83
55540;BME280;41384;51.418;7.286;2023-07-29T08:41:56;99099.69;;;19.65;100.00
55540;BME280;41384;51.418;7.286;2023-07-29T08:44:30;99090.44;;;19.76;98.27
55540;BME280;41384;51.418;7.286;2023-07-29T08:46:58;99094.72;;;19.77;98.63
55540;BME280;41384;51.418;7.286;2023-07-29T08:49:25;99094.16;;;19.80;96.81
55540;BME280;41384;51.418;7.286;2023-07-29T08:51:53;99100.00;;;19.82;98.48
55540;BME280;41384;51.418;7.286;2023-07-29T08:54:19;99094.31;;;19.94;98.87
55540;BME280;41384;51.418;7.286;2023-07-29T08:56:45;99086.06;;;20.10;98.09
55540;BME280;41384;51.418;7.286;2023-07-29T08:59:10;99096.22;;;19.89;97.79
55540;BME280;41384;51.418;7.286;2023-07-29T09:01:38;99090.59;;;19.90;98.83
55540;BME280;41384;51.418;7.286;2023-07-29T09:04:04;99086.06;;;20.10;98.73
55540;BME280;41384;51.418;7.286;2023-07-29T09:06:31;99099.13;;;20.17;97.22
55540;BME280;41384;51.418;7.286;2023-07-29T09:08:56;99086.53;;;20.36;96.56
55540;BME280;41384;51.418;7.286;2023-07-29T09:11:23;99079.00;;;20.38;95.60
55540;BME280;41384;51.418;7.286;2023-07-29T09:13:48;99076.75;;;20.46;94.35
55540;BME280;41384;51.418;7.286;2023-07-29T09:16:14;99076.91;;;20.54;94.14
55540;BME280;41384;51.418;7.286;2023-07-29T09:18:39;99069.78;;;20.64;90.51
55540;BME280;41384;51.418;7.286;2023-07-29T09:21:05;99071.91;;;20.67;90.21
55540;BME280;41384;51.418;7.286;2023-07-29T09:23:41;99075.44;;;20.81;89.72
55540;BME280;41384;51.418;7.286;2023-07-29T09:26:07;99080.72;;;20.87;92.23
55540;BME280;41384;51.418;7.286;2023-07-29T09:28:35;99084.41;;;20.91;90.14
55540;BME280;41384;51.418;7.286;2023-07-29T09:31:01;99082.47;;;21.10;92.39
55540;BME280;41384;51.418;7.286;2023-07-29T09:33:27;99091.16;;;21.21;91.30
55540;BME280;41384;51.418;7.286;2023-07-29T09:35:52;99101.63;;;21.23;89.39
55540;BME280;41384;51.418;7.286;2023-07-29T09:38:18;99106.53;;;21.16;88.28
55540;BME280;41384;51.418;7.286;2023-07-29T09:40:55;99097.81;;;21.10;86.34
55540;BME280;41384;51.418;7.286;2023-07-29T09:43:25;99101.13;;;21.21;87.63
55540;BME280;41384;51.418;7.286;2023-07-29T09:45:52;99093.75;;;21.26;88.10
55540;BME280;41384;51.418;7.286;2023-07-29T09:48:22;99094.94;;;21.20;86.55
55540;BME280;41384;51.418;7.286;2023-07-29T09:50:47;99099.13;;;21.26;87.30
55540;BME280;41384;51.418;7.286;2023-07-29T09:53:14;99103.91;;;21.29;89.03
55540;BME280;41384;51.418;7.286;2023-07-29T09:55:39;99100.91;;;21.17;88.91
55540;BME280;41384;51.418;7.286;2023-07-29T09:58:05;99106.13;;;21.08;89.78
55540;BME280;41384;51.418;7.286;2023-07-29T10:00:33;99101.81;;;20.93;89.21
55540;BME280;41384;51.418;7.286;2023-07-29T10:02:59;99106.25;;;20.84;89.13
55540;BME280;41384;51.418;7.286;2023-07-29T10:05:29;99109.97;;;20.88;87.68
55540;BME280;41384;51.418;7.286;2023-07-29T10:07:55;99106.97;;;20.90;87.59
55540;BME280;41384;51.418;7.286;2023-07-29T10:10:21;99110.38;;;20.95;87.79
55540;BME280;41384;51.418;7.286;2023-07-29T10:12:46;99110.16;;;20.92;88.49
55540;BME280;41384;51.418;7.286;2023-07-29T10:15:12;99112.06;;;20.91;87.12
55540;BME280;41384;51.418;7.286;2023-07-29T10:17:39;99108.78;;;20.94;88.57
55540;BME280;41384;51.418;7.286;2023-07-29T10:20:07;99109.47;;;21.00;88.06
55540;BME280;41384;51.418;7.286;2023-07-29T10:22:36;99104.34;;;21.04;88.13
55540;BME280;41384;51.418;7.286;2023-07-29T10:25:08;99107.00;;;21.23;87.31
55540;BME280;41384;51.418;7.286;2023-07-29T10:27:55;99106.19;;;21.22;88.31
55540;BME280;41384;51.418;7.286;2023-07-29T10:30:21;99114.13;;;21.27;86.83
55540;BME280;41384;51.418;7.286;2023-07-29T10:32:48;99105.34;;;21.55;83.91
55540;BME280;41384;51.418;7.286;2023-07-29T10:35:14;99115.53;;;21.72;81.99
55540;BME280;41384;51.418;7.286;2023-07-29T10:37:41;99118.19;;;21.58;83.42
55540;BME280;41384;51.418;7.286;2023-07-29T10:40:09;99117.03;;;21.78;84.15
55540;BME280;41384;51.418;7.286;2023-07-29T10:42:35;99113.03;;;21.76;81.81
55540;BME280;41384;51.418;7.286;2023-07-29T10:45:00;99112.03;;;21.71;82.66
55540;BME280;41384;51.418;7.286;2023-07-29T10:47:42;99104.91;;;21.67;81.21
55540;BME280;41384;51.418;7.286;2023-07-29T10:50:17;99102.41;;;21.84;83.08
55540;BME280;41384;51.418;7.286;2023-07-29T10:52:43;99111.25;;;21.85;81.07
55540;BME280;41384;51.418;7.286;2023-07-29T10:57:49;99117.78;;;22.07;81.16
55540;BME280;41384;51.418;7.286;2023-07-29T11:00:15;99105.06;;;22.12;81.58
55540;BME280;41384;51.418;7.286;2023-07-29T11:02:40;99096.72;;;22.14;79.86
55540;BME280;41384;51.418;7.286;2023-07-29T11:05:26;99097.38;;;22.34;82.49
55540;BME280;41384;51.418;7.286;2023-07-29T11:07:51;99094.25;;;22.54;79.33
55540;BME280;41384;51.418;7.286;2023-07-29T11:10:17;99106.69;;;22.36;79.01
55540;BME280;41384;51.418;7.286;2023-07-29T11:12:50;99090.09;;;22.34;80.50
55540;BME280;41384;51.418;7.286;2023-07-29T11:15:21;99089.03;;;22.21;80.68
55540;BME280;41384;51.418;7.286;2023-07-29T11:17:52;99085.50;;;22.49;80.49
55540;BME280;41384;51.418;7.286;2023-07-29T11:20:19;99082.81;;;22.49;80.08
55540;BME280;41384;51.418;7.286;2023-07-29T11:22:45;99079.56;;;22.24;80.15
55540;BME280;41384;51.418;7.286;2023-07-29T11:25:12;99080.66;;;22.09;80.28
55540;BME280;41384;51.418;7.286;2023-07-29T11:27:38;99084.75;;;22.20;82.09
55540;BME280;41384;51.418;7.286;2023-07-29T11:30:06;99071.59;;;22.33;80.90
55540;BME280;41384;51.418;7.286;2023-07-29T11:32:32;99071.50;;;22.24;80.27
55540;BME280;41384;51.418;7.286;2023-07-29T11:35:04;99074.13;;;22.52;78.59
55540;BME280;41384;51.418;7.286;2023-07-29T11:37:30;99078.47;;;22.62;78.97
55540;BME280;41384;51.418;7.286;2023-07-29T11:39:56;99088.63;;;22.87;75.43
55540;BME280;41384;51.418;7.286;2023-07-29T11:42:21;99089.19;;;22.76;76.09
55540;BME280;41384;51.418;7.286;2023-07-29T11:44:46;99089.31;;;22.70;76.65
55540;BME280;41384;51.418;7.286;2023-07-29T11:47:12;99093.97;;;22.56;77.53
55540;BME280;41384;51.418;7.286;2023-07-29T11:49:39;99091.56;;;22.54;78.78
55540;BME280;41384;51.418;7.286;2023-07-29T11:54:37;99083.97;;;22.56;76.86
55540;BME280;41384;51.418;7.286;2023-07-29T11:57:09;99082.50;;;22.50;77.43
55540;BME280;41384;51.418;7.286;2023-07-29T11:59:35;99087.16;;;22.44;77.31
55540;BME280;41384;51.418;7.286;2023-07-29T12:02:02;99083.28;;;22.51;76.70
55540;BME280;41384;51.418;7.286;2023-07-29T12:04:30;99084.19;;;22.60;76.06
55540;BME280;41384;51.418;7.286;2023-07-29T12:06:56;99086.75;;;22.88;74.97
55540;BME280;41384;51.418;7.286;2023-07-29T12:09:22;99083.75;;;22.67;74.80
55540;BME280;41384;51.418;7.286;2023-07-29T12:11:48;99088.63;;;22.87;76.24
55540;BME280;41384;51.418;7.286;2023-07-29T12:14:13;99083.44;;;22.91;76.20
55540;BME280;41384;51.418;7.286;2023-07-29T12:16:44;99073.44;;;22.60;74.84
55540;BME280;41384;51.418;7.286;2023-07-29T12:19:13;99085.50;;;22.49;76.37
55540;BME280;41384;51.418;7.286;2023-07-29T12:21:39;99086.25;;;22.12;76.76
55540;BME280;41384;51.418;7.286;2023-07-29T12:24:05;99090.16;;;22.06;77.99
55540;BME280;41384;51.418;7.286;2023-07-29T12:26:31;99083.56;;;22.12;78.28
55540;BME280;41384;51.418;7.286;2023-07-29T12:28:56;99076.72;;;22.57;78.51
55540;BME280;41384;51.418;7.286;2023-07-29T12:31:22;99087.88;;;22.96;76.01
55540;BME280;41384;51.418;7.286;2023-07-29T12:33:56;99076.56;;;23.08;73.06
55540;BME280;41384;51.418;7.286;2023-07-29T12:36:22;99077.91;;;23.42;73.45
55540;BME280;41384;51.418;7.286;2023-07-29T12:38:47;99073.50;;;23.55;72.89
55540;BME280;41384;51.418;7.286;2023-07-29T12:41:12;99069.50;;;23.43;71.93
55540;BME280;41384;51.418;7.286;2023-07-29T12:43:37;99076.59;;;23.39;73.92
55540;BME280;41384;51.418;7.286;2023-07-29T12:46:03;99089.97;;;23.22;74.95
55540;BME280;41384;51.418;7.286;2023-07-29T12:48:28;99082.28;;;22.83;73.15
55540;BME280;41384;51.418;7.286;2023-07-29T12:50:53;99092.75;;;22.85;74.37
55540;BME280;41384;51.418;7.286;2023-07-29T12:53:19;99081.50;;;22.83;73.72
55540;BME280;41384;51.418;7.286;2023-07-29T12:55:44;99089.78;;;23.18;73.60
55540;BME280;41384;51.418;7.286;2023-07-29T12:58:09;99080.81;;;23.54;72.08
55540;BME280;41384;51.418;7.286;2023-07-29T13:00:34;99082.41;;;23.64;72.01